sensor_id;sensor_type;location;lat;lon;timestamp;P1;durP1;ratioP1;P2;durP2;ratioP2
15563;SDS011;7883;52.554;13.364;2023-04-15T00:01:23;27.37;;;19.83;;
15563;SDS011;7883;52.554;13.364;2023-04-15T00:03:51;28.97;;;21.47;;
15563;SDS011;7883;52.554;13.364;2023-04-15T00:06:20;29.03;;;21.07;;
15563;SDS011;7883;52.554;13.364;2023-04-15T00:08:48;27.80;;;19.90;;
15563;SDS011;7883;52.554;13.364;2023-04-15T00:11:15;29.60;;;22.33;;
15563;SDS011;7883;52.554;13.364;2023-04-15T00:13:42;30.03;;;21.40;;
15563;SDS011;7883;52.554;13.364;2023-04-15T00:16:09;27.97;;;20.47;;
15563;SDS011;7883;52.554;13.364;2023-04-15T00:18:36;30.93;;;22.07;;
15563;SDS011;7883;52.554;13.364;2023-04-15T00:21:04;30.67;;;22.50;;
15563;SDS011;7883;52.554;13.364;2023-04-15T00:23:32;33.40;;;23.27;;
15563;SDS011;7883;52.554;13.364;2023-04-15T00:26:00;31.90;;;22.50;;
15563;SDS011;7883;52.554;13.364;2023-04-15T00:28:27;30.53;;;22.23;;
15563;SDS011;7883;52.554;13.364;2023-04-15T00:30:56;30.03;;;22.37;;
15563;SDS011;7883;52.554;13.364;2023-04-15T00:33:23;33.33;;;23.27;;
15563;SDS011;7883;52.554;13.364;2023-04-15T00:35:52;32.90;;;22.90;;
15563;SDS011;7883;52.554;13.364;2023-04-15T00:38:19;30.60;;;22.90;;
15563;SDS011;7883;52.554;13.364;2023-04-15T00:40:48;31.80;;;22.63;;
15563;SDS011;7883;52.554;13.364;2023-04-15T00:43:17;32.07;;;24.23;;
15563;SDS011;7883;52.554;13.364;2023-04-15T00:45:44;34.20;;;23.93;;
15563;SDS011;7883;52.554;13.364;2023-04-15T00:48:11;34.90;;;25.07;;
15563;SDS011;7883;52.554;13.364;2023-04-15T00:50:38;32.73;;;23.90;;
15563;SDS011;7883;52.554;13.364;2023-04-15T00:53:05;31.83;;;23.30;;
15563;SDS011;7883;52.554;13.364;2023-04-15T00:55:33;33.00;;;23.70;;
15563;SDS011;7883;52.554;13.364;2023-04-15T00:58:02;34.63;;;24.20;;
15563;SDS011;7883;52.554;13.364;2023-04-15T01:00:29;36.83;;;24.37;;
15563;SDS011;7883;52.554;13.364;2023-04-15T01:02:57;34.27;;;25.03;;
15563;SDS011;7883;52.554;13.364;2023-04-15T01:05:25;34.70;;;24.03;;
15563;SDS011;7883;52.554;13.364;2023-04-15T01:07:55;34.37;;;24.37;;
15563;SDS011;7883;52.554;13.364;2023-04-15T01:10:23;35.63;;;24.83;;
15563;SDS011;7883;52.554;13.364;2023-04-15T01:12:51;35.83;;;25.20;;
15563;SDS011;7883;52.554;13.364;2023-04-15T01:15:21;34.37;;;25.43;;
15563;SDS011;7883;52.554;13.364;2023-04-15T01:17:49;43.50;;;30.57;;
15563;SDS011;7883;52.554;13.364;2023-04-15T01:20:16;38.60;;;27.93;;
15563;SDS011;7883;52.554;13.364;2023-04-15T01:22:43;40.10;;;28.97;;
15563;SDS011;7883;52.554;13.364;2023-04-15T01:25:11;37.00;;;26.00;;
15563;SDS011;7883;52.554;13.364;2023-04-15T01:27:44;36.90;;;27.33;;
15563;SDS011;7883;52.554;13.364;2023-04-15T01:30:12;38.60;;;26.97;;
15563;SDS011;7883;52.554;13.364;2023-04-15T01:32:39;36.70;;;25.97;;
15563;SDS011;7883;52.554;13.364;2023-04-15T01:35:06;38.53;;;26.27;;
15563;SDS011;7883;52.554;13.364;2023-04-15T01:37:34;39.13;;;25.90;;
15563;SDS011;7883;52.554;13.364;2023-04-15T01:40:02;39.27;;;27.30;;
15563;SDS011;7883;52.554;13.364;2023-04-15T01:42:30;38.77;;;26.17;;
15563;SDS011;7883;52.554;13.364;2023-04-15T01:44:59;37.60;;;26.40;;
15563;SDS011;7883;52.554;13.364;2023-04-15T01:47:26;40.07;;;27.37;;
15563;SDS011;7883;52.554;13.364;2023-04-15T01:49:53;38.23;;;25.50;;
15563;SDS011;7883;52.554;13.364;2023-04-15T01:52:20;38.80;;;25.80;;
15563;SDS011;7883;52.554;13.364;2023-04-15T01:54:47;38.33;;;26.77;;
15563;SDS011;7883;52.554;13.364;2023-04-15T01:57:14;39.87;;;27.17;;
15563;SDS011;7883;52.554;13.364;2023-04-15T01:59:41;38.10;;;25.57;;
15563;SDS011;7883;52.554;13.364;2023-04-15T02:02:10;42.40;;;28.13;;
15563;SDS011;7883;52.554;13.364;2023-04-15T02:04:37;36.70;;;26.07;;
15563;SDS011;7883;52.554;13.364;2023-04-15T02:07:04;38.27;;;26.87;;
15563;SDS011;7883;52.554;13.364;2023-04-15T02:09:34;38.03;;;26.03;;
15563;SDS011;7883;52.554;13.364;2023-04-15T02:12:00;36.47;;;26.10;;
15563;SDS011;7883;52.554;13.364;2023-04-15T02:14:27;40.33;;;27.77;;
15563;SDS011;7883;52.554;13.364;2023-04-15T02:16:54;35.23;;;25.80;;
15563;SDS011;7883;52.554;13.364;2023-04-15T02:19:25;39.50;;;25.83;;
15563;SDS011;7883;52.554;13.364;2023-04-15T02:21:52;39.70;;;26.13;;
15563;SDS011;7883;52.554;13.364;2023-04-15T02:24:19;38.03;;;25.00;;
15563;SDS011;7883;52.554;13.364;2023-04-15T02:26:46;38.10;;;25.27;;
15563;SDS011;7883;52.554;13.364;2023-04-15T02:29:13;39.73;;;26.10;;
15563;SDS011;7883;52.554;13.364;2023-04-15T02:31:40;41.50;;;26.93;;
15563;SDS011;7883;52.554;13.364;2023-04-15T02:34:07;40.07;;;27.00;;
15563;SDS011;7883;52.554;13.364;2023-04-15T02:36:39;40.80;;;25.73;;
15563;SDS011;7883;52.554;13.364;2023-04-15T02:39:07;42.60;;;26.70;;
15563;SDS011;7883;52.554;13.364;2023-04-15T02:41:35;40.67;;;26.87;;
15563;SDS011;7883;52.554;13.364;2023-04-15T02:44:02;40.60;;;26.90;;
15563;SDS011;7883;52.554;13.364;2023-04-15T02:46:29;39.80;;;26.47;;
15563;SDS011;7883;52.554;13.364;2023-04-15T02:48:56;37.23;;;25.83;;
15563;SDS011;7883;52.554;13.364;2023-04-15T02:51:23;39.43;;;26.47;;
15563;SDS011;7883;52.554;13.364;2023-04-15T02:53:59;38.30;;;25.60;;
15563;SDS011;7883;52.554;13.364;2023-04-15T02:56:26;38.97;;;25.60;;
15563;SDS011;7883;52.554;13.364;2023-04-15T02:58:54;41.73;;;26.57;;
15563;SDS011;7883;52.554;13.364;2023-04-15T03:01:22;38.70;;;25.27;;
15563;SDS011;7883;52.554;13.364;2023-04-15T03:03:50;39.37;;;26.23;;
15563;SDS011;7883;52.554;13.364;2023-04-15T03:06:17;37.60;;;25.47;;
15563;SDS011;7883;52.554;13.364;2023-04-15T03:08:45;37.47;;;26.13;;
15563;SDS011;7883;52.554;13.364;2023-04-15T03:11:15;37.40;;;25.33;;
15563;SDS011;7883;52.554;13.364;2023-04-15T03:13:44;40.93;;;25.20;;
15563;SDS011;7883;52.554;13.364;2023-04-15T03:16:11;38.03;;;25.27;;
15563;SDS011;7883;52.554;13.364;2023-04-15T03:18:38;36.40;;;25.13;;
15563;SDS011;7883;52.554;13.364;2023-04-15T03:21:06;39.17;;;24.67;;
15563;SDS011;7883;52.554;13.364;2023-04-15T03:23:33;36.90;;;25.43;;
15563;SDS011;7883;52.554;13.364;2023-04-15T03:26:00;37.93;;;25.80;;
15563;SDS011;7883;52.554;13.364;2023-04-15T03:28:32;37.13;;;26.10;;
15563;SDS011;7883;52.554;13.364;2023-04-15T03:30:59;39.10;;;26.20;;
15563;SDS011;7883;52.554;13.364;2023-04-15T03:33:28;37.17;;;24.83;;
15563;SDS011;7883;52.554;13.364;2023-04-15T03:35:55;34.87;;;23.70;;
15563;SDS011;7883;52.554;13.364;2023-04-15T03:38:22;35.73;;;23.73;;
15563;SDS011;7883;52.554;13.364;2023-04-15T03:40:50;37.33;;;24.43;;
15563;SDS011;7883;52.554;13.364;2023-04-15T03:43:17;35.60;;;23.90;;
15563;SDS011;7883;52.554;13.364;2023-04-15T03:45:45;36.03;;;25.10;;
15563;SDS011;7883;52.554;13.364;2023-04-15T03:48:12;33.47;;;22.80;;
15563;SDS011;7883;52.554;13.364;2023-04-15T03:50:39;35.80;;;23.90;;
15563;SDS011;7883;52.554;13.364;2023-04-15T03:53:06;34.80;;;22.93;;
15563;SDS011;7883;52.554;13.364;2023-04-15T03:55:34;34.23;;;24.13;;
15563;SDS011;7883;52.554;13.364;2023-04-15T03:58:01;34.80;;;24.43;;
15563;SDS011;7883;52.554;13.364;2023-04-15T04:00:28;36.43;;;23.90;;
15563;SDS011;7883;52.554;13.364;2023-04-15T04:02:56;35.90;;;24.20;;
15563;SDS011;7883;52.554;13.364;2023-04-15T04:05:24;36.90;;;24.30;;
15563;SDS011;7883;52.554;13.364;2023-04-15T04:07:51;35.77;;;23.03;;
15563;SDS011;7883;52.554;13.364;2023-04-15T04:10:18;35.37;;;23.90;;
15563;SDS011;7883;52.554;13.364;2023-04-15T04:12:45;35.63;;;23.40;;
15563;SDS011;7883;52.554;13.364;2023-04-15T04:15:12;36.83;;;23.83;;
15563;SDS011;7883;52.554;13.364;2023-04-15T04:17:40;32.57;;;22.97;;
15563;SDS011;7883;52.554;13.364;2023-04-15T04:20:09;35.97;;;23.87;;
15563;SDS011;7883;52.554;13.364;2023-04-15T04:22:39;34.97;;;23.90;;
15563;SDS011;7883;52.554;13.364;2023-04-15T04:25:07;36.40;;;24.03;;
15563;SDS011;7883;52.554;13.364;2023-04-15T04:27:35;33.03;;;22.40;;
15563;SDS011;7883;52.554;13.364;2023-04-15T04:30:02;33.40;;;22.27;;
15563;SDS011;7883;52.554;13.364;2023-04-15T04:32:30;33.73;;;23.30;;
15563;SDS011;7883;52.554;13.364;2023-04-15T04:34:59;32.50;;;21.80;;
15563;SDS011;7883;52.554;13.364;2023-04-15T04:37:28;32.63;;;22.93;;
15563;SDS011;7883;52.554;13.364;2023-04-15T04:39:55;31.60;;;21.07;;
15563;SDS011;7883;52.554;13.364;2023-04-15T04:42:22;32.47;;;21.53;;
15563;SDS011;7883;52.554;13.364;2023-04-15T04:44:49;29.23;;;21.70;;
15563;SDS011;7883;52.554;13.364;2023-04-15T04:47:16;30.63;;;22.03;;
15563;SDS011;7883;52.554;13.364;2023-04-15T04:49:43;32.03;;;21.57;;
15563;SDS011;7883;52.554;13.364;2023-04-15T04:52:11;29.43;;;20.37;;
15563;SDS011;7883;52.554;13.364;2023-04-15T04:54:39;29.97;;;21.30;;
15563;SDS011;7883;52.554;13.364;2023-04-15T04:57:06;30.37;;;21.37;;
15563;SDS011;7883;52.554;13.364;2023-04-15T04:59:33;30.70;;;20.97;;
15563;SDS011;7883;52.554;13.364;2023-04-15T05:02:03;28.37;;;20.03;;
15563;SDS011;7883;52.554;13.364;2023-04-15T05:04:30;30.50;;;20.33;;
15563;SDS011;7883;52.554;13.364;2023-04-15T05:06:57;29.07;;;20.80;;
15563;SDS011;7883;52.554;13.364;2023-04-15T05:09:24;29.97;;;20.53;;
15563;SDS011;7883;52.554;13.364;2023-04-15T05:11:53;31.77;;;19.93;;
15563;SDS011;7883;52.554;13.364;2023-04-15T05:14:20;29.30;;;20.23;;
15563;SDS011;7883;52.554;13.364;2023-04-15T05:16:47;30.40;;;20.90;;
15563;SDS011;7883;52.554;13.364;2023-04-15T05:19:14;28.47;;;20.97;;
15563;SDS011;7883;52.554;13.364;2023-04-15T05:21:41;30.40;;;20.90;;
15563;SDS011;7883;52.554;13.364;2023-04-15T05:24:08;27.87;;;20.30;;
15563;SDS011;7883;52.554;13.364;2023-04-15T05:26:35;30.37;;;19.97;;
15563;SDS011;7883;52.554;13.364;2023-04-15T05:29:04;26.10;;;18.73;;
15563;SDS011;7883;52.554;13.364;2023-04-15T05:31:31;27.00;;;18.50;;
15563;SDS011;7883;52.554;13.364;2023-04-15T05:34:00;27.07;;;18.50;;
15563;SDS011;7883;52.554;13.364;2023-04-15T05:36:27;26.37;;;18.80;;
15563;SDS011;7883;52.554;13.364;2023-04-15T05:38:55;25.67;;;18.43;;
15563;SDS011;7883;52.554;13.364;2023-04-15T05:41:22;27.97;;;18.90;;
15563;SDS011;7883;52.554;13.364;2023-04-15T05:43:51;25.87;;;18.10;;
15563;SDS011;7883;52.554;13.364;2023-04-15T05:46:22;26.90;;;18.93;;
15563;SDS011;7883;52.554;13.364;2023-04-15T05:48:50;24.67;;;17.80;;
15563;SDS011;7883;52.554;13.364;2023-04-15T05:51:17;26.03;;;17.80;;
15563;SDS011;7883;52.554;13.364;2023-04-15T05:53:44;25.53;;;17.73;;
15563;SDS011;7883;52.554;13.364;2023-04-15T05:56:11;27.07;;;17.50;;
15563;SDS011;7883;52.554;13.364;2023-04-15T05:58:38;24.60;;;17.63;;
15563;SDS011;7883;52.554;13.364;2023-04-15T06:01:05;25.17;;;17.50;;
15563;SDS011;7883;52.554;13.364;2023-04-15T06:03:33;23.60;;;16.87;;
15563;SDS011;7883;52.554;13.364;2023-04-15T06:06:00;24.33;;;16.73;;
15563;SDS011;7883;52.554;13.364;2023-04-15T06:08:27;24.03;;;16.33;;
15563;SDS011;7883;52.554;13.364;2023-04-15T06:10:54;22.93;;;16.77;;
15563;SDS011;7883;52.554;13.364;2023-04-15T06:13:22;22.20;;;15.53;;
15563;SDS011;7883;52.554;13.364;2023-04-15T06:15:49;23.00;;;16.53;;
15563;SDS011;7883;52.554;13.364;2023-04-15T06:18:16;22.33;;;16.27;;
15563;SDS011;7883;52.554;13.364;2023-04-15T06:20:44;22.57;;;15.37;;
15563;SDS011;7883;52.554;13.364;2023-04-15T06:23:11;21.00;;;15.10;;
15563;SDS011;7883;52.554;13.364;2023-04-15T06:25:38;25.63;;;17.27;;
15563;SDS011;7883;52.554;13.364;2023-04-15T06:28:05;24.47;;;19.07;;
15563;SDS011;7883;52.554;13.364;2023-04-15T06:30:33;33.00;;;24.80;;
15563;SDS011;7883;52.554;13.364;2023-04-15T06:33:00;24.17;;;17.60;;
15563;SDS011;7883;52.554;13.364;2023-04-15T06:35:29;24.23;;;19.30;;
15563;SDS011;7883;52.554;13.364;2023-04-15T06:37:57;24.83;;;19.43;;
15563;SDS011;7883;52.554;13.364;2023-04-15T06:40:24;21.87;;;16.57;;
15563;SDS011;7883;52.554;13.364;2023-04-15T06:42:52;19.80;;;13.13;;
15563;SDS011;7883;52.554;13.364;2023-04-15T06:45:19;20.73;;;14.83;;
15563;SDS011;7883;52.554;13.364;2023-04-15T06:47:46;19.13;;;13.00;;
15563;SDS011;7883;52.554;13.364;2023-04-15T06:50:13;22.17;;;13.87;;
15563;SDS011;7883;52.554;13.364;2023-04-15T06:52:40;26.70;;;21.83;;
15563;SDS011;7883;52.554;13.364;2023-04-15T06:55:08;20.10;;;14.67;;
15563;SDS011;7883;52.554;13.364;2023-04-15T06:57:35;19.33;;;13.80;;
15563;SDS011;7883;52.554;13.364;2023-04-15T07:00:03;18.60;;;12.13;;
15563;SDS011;7883;52.554;13.364;2023-04-15T07:02:31;19.03;;;12.13;;
15563;SDS011;7883;52.554;13.364;2023-04-15T07:04:58;17.30;;;11.73;;
15563;SDS011;7883;52.554;13.364;2023-04-15T07:07:25;16.67;;;11.67;;
15563;SDS011;7883;52.554;13.364;2023-04-15T07:09:52;16.80;;;11.37;;
15563;SDS011;7883;52.554;13.364;2023-04-15T07:12:21;14.90;;;10.97;;
15563;SDS011;7883;52.554;13.364;2023-04-15T07:14:48;15.93;;;10.70;;
15563;SDS011;7883;52.554;13.364;2023-04-15T07:17:16;16.43;;;11.07;;
15563;SDS011;7883;52.554;13.364;2023-04-15T07:19:43;16.87;;;10.27;;
15563;SDS011;7883;52.554;13.364;2023-04-15T07:22:10;16.50;;;10.20;;
15563;SDS011;7883;52.554;13.364;2023-04-15T07:24:37;16.03;;;11.23;;
15563;SDS011;7883;52.554;13.364;2023-04-15T07:27:04;17.10;;;10.53;;
15563;SDS011;7883;52.554;13.364;2023-04-15T07:29:34;16.33;;;10.50;;
15563;SDS011;7883;52.554;13.364;2023-04-15T07:32:01;17.23;;;10.67;;
15563;SDS011;7883;52.554;13.364;2023-04-15T07:34:28;15.63;;;10.50;;
15563;SDS011;7883;52.554;13.364;2023-04-15T07:36:55;16.63;;;11.27;;
15563;SDS011;7883;52.554;13.364;2023-04-15T07:39:22;16.27;;;10.73;;
15563;SDS011;7883;52.554;13.364;2023-04-15T07:41:49;16.40;;;11.90;;
15563;SDS011;7883;52.554;13.364;2023-04-15T07:44:16;14.33;;;10.50;;
15563;SDS011;7883;52.554;13.364;2023-04-15T07:46:47;16.93;;;11.70;;
15563;SDS011;7883;52.554;13.364;2023-04-15T07:49:14;17.50;;;10.50;;
15563;SDS011;7883;52.554;13.364;2023-04-15T07:51:43;16.23;;;10.97;;
15563;SDS011;7883;52.554;13.364;2023-04-15T07:54:10;17.33;;;11.20;;
15563;SDS011;7883;52.554;13.364;2023-04-15T07:56:37;17.73;;;11.60;;
15563;SDS011;7883;52.554;13.364;2023-04-15T07:59:04;15.80;;;11.10;;
15563;SDS011;7883;52.554;13.364;2023-04-15T08:01:31;15.53;;;11.53;;
15563;SDS011;7883;52.554;13.364;2023-04-15T08:03:59;16.33;;;11.73;;
15563;SDS011;7883;52.554;13.364;2023-04-15T08:06:27;15.43;;;10.93;;
15563;SDS011;7883;52.554;13.364;2023-04-15T08:08:54;17.70;;;10.93;;
15563;SDS011;7883;52.554;13.364;2023-04-15T08:11:21;17.50;;;12.03;;
15563;SDS011;7883;52.554;13.364;2023-04-15T08:13:48;15.73;;;11.20;;
15563;SDS011;7883;52.554;13.364;2023-04-15T08:16:16;16.60;;;12.10;;
15563;SDS011;7883;52.554;13.364;2023-04-15T08:18:44;19.20;;;11.83;;
15563;SDS011;7883;52.554;13.364;2023-04-15T08:21:13;15.23;;;10.80;;
15563;SDS011;7883;52.554;13.364;2023-04-15T08:23:40;15.83;;;11.80;;
15563;SDS011;7883;52.554;13.364;2023-04-15T08:26:07;15.97;;;11.20;;
15563;SDS011;7883;52.554;13.364;2023-04-15T08:28:35;15.87;;;11.40;;
15563;SDS011;7883;52.554;13.364;2023-04-15T08:31:04;16.73;;;11.47;;
15563;SDS011;7883;52.554;13.364;2023-04-15T08:33:31;23.30;;;16.93;;
15563;SDS011;7883;52.554;13.364;2023-04-15T08:35:58;18.20;;;11.40;;
15563;SDS011;7883;52.554;13.364;2023-04-15T08:38:27;17.80;;;11.47;;
15563;SDS011;7883;52.554;13.364;2023-04-15T08:40:54;17.73;;;12.10;;
15563;SDS011;7883;52.554;13.364;2023-04-15T08:43:25;18.27;;;12.67;;
15563;SDS011;7883;52.554;13.364;2023-04-15T08:45:54;16.77;;;11.63;;
15563;SDS011;7883;52.554;13.364;2023-04-15T08:48:25;17.03;;;12.50;;
15563;SDS011;7883;52.554;13.364;2023-04-15T08:50:55;17.87;;;12.57;;
15563;SDS011;7883;52.554;13.364;2023-04-15T08:53:23;17.50;;;12.37;;
15563;SDS011;7883;52.554;13.364;2023-04-15T08:55:51;14.63;;;10.77;;
15563;SDS011;7883;52.554;13.364;2023-04-15T08:58:22;16.27;;;12.13;;
15563;SDS011;7883;52.554;13.364;2023-04-15T09:00:50;18.00;;;11.60;;
15563;SDS011;7883;52.554;13.364;2023-04-15T09:03:17;17.87;;;12.43;;
15563;SDS011;7883;52.554;13.364;2023-04-15T09:05:45;17.00;;;11.67;;
15563;SDS011;7883;52.554;13.364;2023-04-15T09:08:12;18.30;;;12.07;;
15563;SDS011;7883;52.554;13.364;2023-04-15T09:10:39;16.33;;;11.80;;
15563;SDS011;7883;52.554;13.364;2023-04-15T09:13:08;22.27;;;17.53;;
15563;SDS011;7883;52.554;13.364;2023-04-15T09:15:35;20.07;;;14.50;;
15563;SDS011;7883;52.554;13.364;2023-04-15T09:18:04;17.03;;;11.70;;
15563;SDS011;7883;52.554;13.364;2023-04-15T09:25:47;16.80;;;12.07;;
15563;SDS011;7883;52.554;13.364;2023-04-15T09:28:24;20.53;;;15.90;;
15563;SDS011;7883;52.554;13.364;2023-04-15T09:30:54;18.77;;;12.00;;
15563;SDS011;7883;52.554;13.364;2023-04-15T09:33:24;16.33;;;10.83;;
15563;SDS011;7883;52.554;13.364;2023-04-15T09:35:56;16.53;;;11.07;;
15563;SDS011;7883;52.554;13.364;2023-04-15T09:38:24;15.73;;;11.17;;
15563;SDS011;7883;52.554;13.364;2023-04-15T09:40:52;16.17;;;11.13;;
15563;SDS011;7883;52.554;13.364;2023-04-15T09:43:19;16.27;;;11.57;;
15563;SDS011;7883;52.554;13.364;2023-04-15T09:45:48;15.83;;;10.77;;
15563;SDS011;7883;52.554;13.364;2023-04-15T09:48:18;16.57;;;10.80;;
15563;SDS011;7883;52.554;13.364;2023-04-15T09:50:46;16.10;;;11.70;;
15563;SDS011;7883;52.554;13.364;2023-04-15T09:53:16;17.43;;;11.53;;
15563;SDS011;7883;52.554;13.364;2023-04-15T09:55:45;17.70;;;12.33;;
15563;SDS011;7883;52.554;13.364;2023-04-15T09:58:19;17.60;;;12.03;;
15563;SDS011;7883;52.554;13.364;2023-04-15T10:00:49;17.23;;;10.93;;
15563;SDS011;7883;52.554;13.364;2023-04-15T10:03:18;16.93;;;11.57;;
15563;SDS011;7883;52.554;13.364;2023-04-15T10:05:47;16.83;;;10.93;;
15563;SDS011;7883;52.554;13.364;2023-04-15T10:08:17;16.40;;;11.43;;
15563;SDS011;7883;52.554;13.364;2023-04-15T10:10:46;17.23;;;11.57;;
15563;SDS011;7883;52.554;13.364;2023-04-15T10:13:15;16.77;;;11.33;;
15563;SDS011;7883;52.554;13.364;2023-04-15T10:15:47;16.97;;;12.13;;
15563;SDS011;7883;52.554;13.364;2023-04-15T10:18:21;20.13;;;14.67;;
15563;SDS011;7883;52.554;13.364;2023-04-15T10:20:51;19.00;;;14.53;;
15563;SDS011;7883;52.554;13.364;2023-04-15T10:23:19;17.63;;;12.40;;
15563;SDS011;7883;52.554;13.364;2023-04-15T10:25:48;16.23;;;11.23;;
15563;SDS011;7883;52.554;13.364;2023-04-15T10:28:18;15.83;;;11.10;;
15563;SDS011;7883;52.554;13.364;2023-04-15T10:30:47;15.63;;;11.77;;
15563;SDS011;7883;52.554;13.364;2023-04-15T10:33:17;16.40;;;11.43;;
15563;SDS011;7883;52.554;13.364;2023-04-15T10:35:47;15.80;;;10.27;;
15563;SDS011;7883;52.554;13.364;2023-04-15T10:38:33;16.47;;;11.23;;
15563;SDS011;7883;52.554;13.364;2023-04-15T10:41:14;16.83;;;12.40;;
15563;SDS011;7883;52.554;13.364;2023-04-15T10:43:49;18.60;;;13.93;;
15563;SDS011;7883;52.554;13.364;2023-04-15T10:46:19;17.23;;;12.20;;
15563;SDS011;7883;52.554;13.364;2023-04-15T10:48:49;16.30;;;11.83;;
15563;SDS011;7883;52.554;13.364;2023-04-15T10:51:26;18.10;;;12.00;;
15563;SDS011;7883;52.554;13.364;2023-04-15T10:53:56;18.77;;;14.60;;
15563;SDS011;7883;52.554;13.364;2023-04-15T10:56:25;17.73;;;11.90;;
15563;SDS011;7883;52.554;13.364;2023-04-15T10:58:54;17.20;;;13.07;;
15563;SDS011;7883;52.554;13.364;2023-04-15T11:07:32;16.00;;;12.17;;
15563;SDS011;7883;52.554;13.364;2023-04-15T11:10:03;15.37;;;10.93;;
15563;SDS011;7883;52.554;13.364;2023-04-15T11:13:26;16.10;;;11.63;;
15563;SDS011;7883;52.554;13.364;2023-04-15T11:15:57;15.10;;;11.53;;
15563;SDS011;7883;52.554;13.364;2023-04-15T11:18:35;16.87;;;12.00;;
15563;SDS011;7883;52.554;13.364;2023-04-15T11:21:05;16.50;;;12.03;;
15563;SDS011;7883;52.554;13.364;2023-04-15T11:23:35;16.17;;;11.90;;
15563;SDS011;7883;52.554;13.364;2023-04-15T11:26:04;18.33;;;11.97;;
15563;SDS011;7883;52.554;13.364;2023-04-15T11:28:36;18.00;;;11.70;;
15563;SDS011;7883;52.554;13.364;2023-04-15T11:31:06;17.50;;;12.40;;
15563;SDS011;7883;52.554;13.364;2023-04-15T11:33:35;14.47;;;10.73;;
15563;SDS011;7883;52.554;13.364;2023-04-15T11:36:03;15.57;;;11.03;;
15563;SDS011;7883;52.554;13.364;2023-04-15T11:38:31;16.17;;;11.50;;
15563;SDS011;7883;52.554;13.364;2023-04-15T11:41:07;15.13;;;12.07;;
15563;SDS011;7883;52.554;13.364;2023-04-15T11:43:34;15.27;;;11.67;;
15563;SDS011;7883;52.554;13.364;2023-04-15T11:46:01;15.80;;;11.50;;
15563;SDS011;7883;52.554;13.364;2023-04-15T11:48:30;16.60;;;10.90;;
15563;SDS011;7883;52.554;13.364;2023-04-15T11:50:58;15.73;;;11.73;;
15563;SDS011;7883;52.554;13.364;2023-04-15T11:53:36;16.37;;;11.70;;
15563;SDS011;7883;52.554;13.364;2023-04-15T11:56:05;14.60;;;10.70;;
15563;SDS011;7883;52.554;13.364;2023-04-15T11:58:34;17.00;;;11.20;;
15563;SDS011;7883;52.554;13.364;2023-04-15T12:01:04;16.17;;;11.83;;
15563;SDS011;7883;52.554;13.364;2023-04-15T12:03:35;16.63;;;11.27;;
15563;SDS011;7883;52.554;13.364;2023-04-15T12:06:05;16.37;;;11.60;;
15563;SDS011;7883;52.554;13.364;2023-04-15T12:11:39;16.37;;;10.93;;
15563;SDS011;7883;52.554;13.364;2023-04-15T12:16:59;16.10;;;12.00;;
15563;SDS011;7883;52.554;13.364;2023-04-15T12:19:28;15.23;;;11.80;;
15563;SDS011;7883;52.554;13.364;2023-04-15T12:22:00;18.80;;;14.73;;
15563;SDS011;7883;52.554;13.364;2023-04-15T12:24:31;15.07;;;11.07;;
15563;SDS011;7883;52.554;13.364;2023-04-15T12:27:01;15.00;;;11.80;;
15563;SDS011;7883;52.554;13.364;2023-04-15T12:29:30;16.73;;;11.43;;
15563;SDS011;7883;52.554;13.364;2023-04-15T12:31:58;15.53;;;11.63;;
15563;SDS011;7883;52.554;13.364;2023-04-15T12:34:32;18.77;;;14.97;;
15563;SDS011;7883;52.554;13.364;2023-04-15T12:37:02;16.40;;;10.87;;
15563;SDS011;7883;52.554;13.364;2023-04-15T12:39:35;19.57;;;15.30;;
15563;SDS011;7883;52.554;13.364;2023-04-15T12:42:03;17.37;;;11.93;;
15563;SDS011;7883;52.554;13.364;2023-04-15T12:44:32;19.23;;;14.00;;
15563;SDS011;7883;52.554;13.364;2023-04-15T12:47:00;17.43;;;12.50;;
15563;SDS011;7883;52.554;13.364;2023-04-15T12:49:27;17.00;;;11.97;;
15563;SDS011;7883;52.554;13.364;2023-04-15T12:51:58;14.53;;;10.93;;
15563;SDS011;7883;52.554;13.364;2023-04-15T12:54:28;17.67;;;12.23;;
15563;SDS011;7883;52.554;13.364;2023-04-15T12:56:58;17.67;;;11.23;;
15563;SDS011;7883;52.554;13.364;2023-04-15T12:59:25;20.10;;;15.73;;
15563;SDS011;7883;52.554;13.364;2023-04-15T13:01:54;18.60;;;13.27;;
15563;SDS011;7883;52.554;13.364;2023-04-15T13:04:22;15.00;;;10.90;;
15563;SDS011;7883;52.554;13.364;2023-04-15T13:06:50;14.73;;;9.97;;
15563;SDS011;7883;52.554;13.364;2023-04-15T13:09:18;14.33;;;10.10;;
15563;SDS011;7883;52.554;13.364;2023-04-15T13:11:50;14.57;;;10.20;;
15563;SDS011;7883;52.554;13.364;2023-04-15T13:14:22;15.17;;;11.23;;
15563;SDS011;7883;52.554;13.364;2023-04-15T13:16:50;14.93;;;9.73;;
15563;SDS011;7883;52.554;13.364;2023-04-15T13:19:19;23.27;;;17.10;;
15563;SDS011;7883;52.554;13.364;2023-04-15T13:21:46;14.03;;;8.97;;
15563;SDS011;7883;52.554;13.364;2023-04-15T13:24:13;12.63;;;9.17;;
15563;SDS011;7883;52.554;13.364;2023-04-15T13:26:40;12.80;;;9.30;;
15563;SDS011;7883;52.554;13.364;2023-04-15T13:29:08;16.13;;;11.23;;
15563;SDS011;7883;52.554;13.364;2023-04-15T13:31:37;15.63;;;11.33;;
15563;SDS011;7883;52.554;13.364;2023-04-15T13:34:06;11.73;;;7.97;;
15563;SDS011;7883;52.554;13.364;2023-04-15T13:36:33;12.97;;;8.70;;
15563;SDS011;7883;52.554;13.364;2023-04-15T13:39:00;14.70;;;9.47;;
15563;SDS011;7883;52.554;13.364;2023-04-15T13:41:27;15.40;;;10.33;;
15563;SDS011;7883;52.554;13.364;2023-04-15T13:43:54;14.03;;;9.87;;
15563;SDS011;7883;52.554;13.364;2023-04-15T13:46:22;14.70;;;9.67;;
15563;SDS011;7883;52.554;13.364;2023-04-15T13:48:53;12.70;;;9.30;;
15563;SDS011;7883;52.554;13.364;2023-04-15T13:51:20;13.40;;;9.37;;
15563;SDS011;7883;52.554;13.364;2023-04-15T13:53:49;14.57;;;10.43;;
15563;SDS011;7883;52.554;13.364;2023-04-15T13:56:18;14.77;;;10.63;;
15563;SDS011;7883;52.554;13.364;2023-04-15T13:58:45;14.07;;;9.47;;
15563;SDS011;7883;52.554;13.364;2023-04-15T14:01:13;15.40;;;10.30;;
15563;SDS011;7883;52.554;13.364;2023-04-15T14:03:40;17.00;;;10.53;;
15563;SDS011;7883;52.554;13.364;2023-04-15T14:06:08;17.20;;;12.53;;
15563;SDS011;7883;52.554;13.364;2023-04-15T14:08:36;13.67;;;9.90;;
15563;SDS011;7883;52.554;13.364;2023-04-15T14:11:06;14.83;;;9.60;;
15563;SDS011;7883;52.554;13.364;2023-04-15T14:13:33;13.37;;;9.60;;
15563;SDS011;7883;52.554;13.364;2023-04-15T14:16:00;15.90;;;10.47;;
15563;SDS011;7883;52.554;13.364;2023-04-15T14:18:28;14.17;;;9.27;;
15563;SDS011;7883;52.554;13.364;2023-04-15T14:20:55;13.27;;;9.40;;
15563;SDS011;7883;52.554;13.364;2023-04-15T14:23:26;15.37;;;10.27;;
15563;SDS011;7883;52.554;13.364;2023-04-15T14:25:53;16.83;;;11.87;;
15563;SDS011;7883;52.554;13.364;2023-04-15T14:28:20;17.10;;;10.83;;
15563;SDS011;7883;52.554;13.364;2023-04-15T14:30:48;13.23;;;9.33;;
15563;SDS011;7883;52.554;13.364;2023-04-15T14:33:15;16.13;;;10.40;;
15563;SDS011;7883;52.554;13.364;2023-04-15T14:35:43;14.40;;;10.60;;
15563;SDS011;7883;52.554;13.364;2023-04-15T14:38:13;13.97;;;9.80;;
15563;SDS011;7883;52.554;13.364;2023-04-15T14:40:41;13.47;;;8.77;;
15563;SDS011;7883;52.554;13.364;2023-04-15T14:43:08;13.63;;;9.07;;
15563;SDS011;7883;52.554;13.364;2023-04-15T14:45:36;26.40;;;20.17;;
15563;SDS011;7883;52.554;13.364;2023-04-15T14:48:06;13.53;;;8.87;;